• Join FlightAware (Why Join?)
  • Login
  • US Flag 
09:36PM EDT


 

Airport Tracker/Info


-or-


 

Live Flight TrackerFlight Track Log ✈ N30TP ✈ 16-Jul-2013 ✈ KRNH - 3DW

Flight Track Log - Related Links

Times and Time Zones

All times are in EDT time to prevent confusion due to time zone crossing. See the N30TP flight status page for this flight to view local times or setup timezone preferences in your user account.

Time Position Orientation Groundspeed Altitude Reporting Facility
EDT Latitude Longitude Course Direction KTS MPH feet Rate Location/Type
07:06AM 45.0833 -92.4833 200° South 111 128 2,800  Level Minneapolis TRACON
07:07AM 45.0500 -92.4833 180° South 114 131 3,300 480 Climbing Minneapolis TRACON
07:08AM 45.0292 -92.4742 163° South 114 131 3,600 480 Climbing Minneapolis Center
07:09AM 44.9964 -92.4731 179° South 117 135 4,100 480 Climbing Minneapolis Center
07:10AM 44.9617 -92.4747 182° South 123 142 4,600 420 Climbing Minneapolis Center
07:11AM 44.9285 -92.5613 180° South  Level Estimated
07:11AM 44.9275 -92.4803 187° South 124 143 5,000  Level Minneapolis Center
07:12AM 44.8846 -92.5657 200° South  Level Estimated
07:12AM 44.8908 -92.4861 186° South 131 151 5,300  Level Minneapolis Center
07:13AM 44.8539 -92.4931 188° South 133 153 5,800 420 Climbing Minneapolis Center
07:14AM 44.8183 -92.5011 189° South 131 151 6,200 360 Climbing Minneapolis Center
07:15AM 44.7892 -92.5047 185° South 132 152 6,600 480 Climbing Minneapolis Center
07:16AM 44.7467 -92.5108 186° South 128 147 7,200 540 Climbing Minneapolis Center
07:17AM 44.7042 -92.5153 184° South 127 146 7,800 360 Climbing Minneapolis Center
07:18AM 44.6669 -92.5186 184° South 133 153 8,000 60 Climbing Minneapolis Center
07:19AM 44.6253 -92.5228 184° South 148 170 8,000  Level Minneapolis Center
07:20AM 44.5892 -92.5267 184° South 160 184 8,000  Level Minneapolis Center
07:21AM 44.5333 -92.5333 185° South 169 194 8,000  Level Minneapolis Center
07:22AM 44.4867 -92.5389 185° South 169 194 8,000  Level Minneapolis Center
07:23AM 44.4408 -92.5436 184° South 166 191 8,000 -60 Level Minneapolis Center
07:24AM 44.4053 -92.5497 187° South 162 186 7,900 -60 Descending Minneapolis Center
07:25AM 44.3550 -92.5536 183° South 153 176 7,900  Level Minneapolis Center
07:26AM 44.3097 -92.5594 185° South 149 171 8,000  Climbing Minneapolis Center
07:27AM 44.2697 -92.5628 183° South 147 169 8,000  Level Minneapolis Center
07:28AM 44.2308 -92.5667 184° South 142 163 8,000  Level Minneapolis Center
07:29AM 44.1872 -92.5711 184° South 146 168 8,000  Level Minneapolis Center
07:30AM 44.1475 -92.5753 184° South 146 168 8,000  Level Minneapolis Center
07:31AM 44.1069 -92.5800 185° South 147 169 8,000  Level Minneapolis Center
07:32AM 44.0619 -92.5853 185° South 151 174 8,000  Level Minneapolis Center
07:34AM 44.0108 -92.5914 185° South 150 173 8,000  Level Minneapolis Center
07:35AM 43.9639 -92.5967 185° South 147 169 8,000  Level Minneapolis Center
07:36AM 43.9200 -92.5997 183° South 148 170 8,100  Climbing Minneapolis Center
07:37AM 43.8794 -92.6031 183° South 149 171 8,100  Level Minneapolis Center
07:38AM 43.8356 -92.6083 185° South 149 171 8,100  Level Minneapolis Center
07:39AM 43.7850 -92.6153 186° South 147 169 8,100  Level Minneapolis Center
07:40AM 43.7439 -92.6203 185° South 150 173 8,100  Level Minneapolis Center
07:41AM 43.7036 -92.6242 184° South 147 169 8,100  Level Minneapolis Center
07:42AM 43.6522 -92.6289 184° South 149 171 8,100 -60 Level Minneapolis Center
07:43AM 43.6078 -92.6333 184° South 149 171 8,000  Descending Minneapolis Center
07:44AM 43.5672 -92.6386 185° South 148 170 8,100  Climbing Minneapolis Center
07:45AM 43.5267 -92.6433 185° South 147 169 8,100  Level Minneapolis Center
07:46AM 43.4758 -92.6492 185° South 149 171 8,100  Level Minneapolis Center
07:47AM 43.4314 -92.6525 183° South 149 171 8,100  Level Minneapolis Center
07:48AM 43.3903 -92.6578 185° South 149 171 8,100  Level Minneapolis Center
07:49AM 43.3486 -92.6600 182° South 151 174 8,100  Level Minneapolis Center
07:50AM 43.3039 -92.6656 185° South 150 173 8,100  Level Minneapolis Center
07:52AM 43.2644 -92.6706 185° South 152 175 8,100  Level Minneapolis Center
07:53AM 43.2142 -92.6778 186° South 153 176 8,100  Level Minneapolis Center
07:54AM 43.1728 -92.6822 184° South 152 175 8,100  Level Minneapolis Center
07:55AM 43.1397 -92.6853 184° South 151 174 8,100  Level Minneapolis Center
07:56AM 43.0897 -92.6903 184° South 151 174 8,100  Level Minneapolis Center
07:57AM 43.0389 -92.6947 184° South 153 176 8,100  Level Minneapolis Center
07:58AM 42.9969 -92.6981 183° South 152 175 8,100  Level Minneapolis Center
07:59AM 42.9456 -92.7033 184° South 155 178 8,100  Level Minneapolis Center
08:00AM 42.9028 -92.7089 185° South 156 180 8,100  Level Minneapolis Center
08:01AM 42.8742 -92.7119 184° South 153 176 8,100  Level Chicago Center
08:02AM 42.8311 -92.7153 183° South 154 177 8,100  Level Chicago Center
08:03AM 42.7817 -92.7211 185° South 153 176 8,100  Level Chicago Center
08:04AM 42.7400 -92.7236 183° South 152 175 8,100  Level Chicago Center
08:05AM 42.6967 -92.7269 183° South 153 176 8,100  Level Chicago Center
08:06AM 42.6542 -92.7311 184° South 154 177 8,100  Level Chicago Center
08:07AM 42.6111 -92.7353 184° South 156 180 8,100  Level Chicago Center
08:08AM 42.5594 -92.7411 185° South 156 180 8,100  Level Chicago Center
08:09AM 42.5164 -92.7450 184° South 157 181 8,100  Level Chicago Center
08:10AM 42.4733 -92.7508 186° South 157 181 8,100  Level Chicago Center
08:11AM 42.4297 -92.7536 183° South 157 181 8,100  Level Chicago Center
08:12AM 42.3869 -92.7586 185° South 157 181 8,100 -60 Level Chicago Center
08:13AM 42.3358 -92.7631 184° South 156 180 8,000  Descending Chicago Center
08:14AM 42.2925 -92.7667 184° South 157 181 8,100  Climbing Chicago Center
08:15AM 42.2522 -92.7733 187° South 153 176 8,100  Level Chicago Center
08:16AM 42.2100 -92.7772 184° South 152 175 8,100  Level Chicago Center
08:17AM 42.1575 -92.7803 182° South 157 181 8,100  Level Chicago Center
08:18AM 42.1144 -92.7847 184° South 157 181 8,100  Level Chicago Center
08:19AM 42.0714 -92.7897 185° South 158 182 8,100  Level Chicago Center
08:20AM 42.0269 -92.7939 184° South 159 183 8,100  Level Chicago Center
08:21AM 41.9847 -92.8003 186° South 156 180 8,100  Level Chicago Center
08:22AM 41.9322 -92.8036 183° South 158 182 8,100  Level Chicago Center
08:23AM 41.8900 -92.8100 186° South 155 178 8,100  Level Chicago Center
08:24AM 41.8478 -92.8147 185° South 154 177 8,100  Level Chicago Center
08:25AM 41.8056 -92.8178 183° South 153 176 8,100  Level Chicago Center
08:27AM 41.7611 -92.8169 179° South 153 176 8,100  Level Minneapolis Center
08:28AM 41.7153 -92.8192 182° South 154 177 8,100  Level Minneapolis Center
08:29AM 41.6739 -92.8236 185° South 153 176 8,100  Level Minneapolis Center
08:30AM 41.6303 -92.8281 184° South 153 176 8,100  Level Minneapolis Center
08:31AM 41.5886 -92.8325 185° South 152 175 8,100  Level Minneapolis Center
08:32AM 41.5469 -92.8369 185° South 153 176 8,100  Level Minneapolis Center
08:33AM 41.4783 -92.8533 190° South 154 177 8,100  Level Minneapolis Center
08:34AM 41.4364 -92.8564 183° South 153 176 8,100  Level Minneapolis Center
08:35AM 41.3939 -92.8603 184° South 153 176 8,100  Level Minneapolis Center
08:36AM 41.3608 -92.8597 179° South 154 177 8,100  Level Chicago Center
08:37AM 41.3186 -92.8653 186° South 153 176 8,100  Level Chicago Center
08:38AM 41.2767 -92.8711 186° South 154 177 8,100  Level Chicago Center
08:39AM 41.2336 -92.8753 184° South 155 178 8,100  Level Chicago Center
08:40AM 41.1919 -92.8792 184° South 153 176 8,100  Level Chicago Center
08:41AM 41.1417 -92.8833 184° South 153 176 8,100  Level Chicago Center
08:42AM 41.0994 -92.8858 183° South 153 176 8,100  Level Chicago Center
08:43AM 41.0575 -92.8892 183° South 153 176 8,100  Level Chicago Center
08:44AM 41.0147 -92.8936 184° South 154 177 8,100  Level Chicago Center
08:45AM 40.9714 -92.8986 185° South 156 180 8,100  Level Chicago Center
08:46AM 40.9203 -92.9056 186° South 155 178 8,100  Level Chicago Center
08:47AM 40.8786 -92.9094 184° South 153 176 8,100  Level Chicago Center
08:48AM 40.8369 -92.9139 185° South 153 176 8,100  Level Chicago Center
08:49AM 40.7947 -92.9172 183° South 153 176 8,100  Level Chicago Center
08:50AM 40.7528 -92.9203 183° South 153 176 8,100  Level Chicago Center
08:51AM 40.7028 -92.9253 184° South 152 175 8,100  Level Chicago Center
08:52AM 40.6603 -92.9292 184° South 154 177 8,100  Level Chicago Center
08:53AM 40.6183 -92.9333 184° South 153 176 8,100  Level Chicago Center
08:54AM 40.5842 -92.9375 185° South 153 176 8,100  Level Kansas City Center
08:55AM 40.5422 -92.9414 184° South 153 176 8,100  Level Kansas City Center
08:56AM 40.5000 -92.9458 185° South 154 177 8,100  Level Kansas City Center
08:57AM 40.4492 -92.9494 183° South 154 177 8,100  Level Kansas City Center
08:58AM 40.4067 -92.9533 184° South 154 177 8,100  Level Kansas City Center
08:59AM 40.3653 -92.9578 185° South 153 176 8,100  Level Kansas City Center
09:00AM 40.3231 -92.9631 185° South 153 176 8,100  Level Kansas City Center
09:01AM 40.2811 -92.9669 184° South 153 176 8,100  Level Kansas City Center
09:02AM 40.2294 -92.9711 184° South 156 180 8,100  Level Kansas City Center
09:03AM 40.1878 -92.9747 184° South 154 177 8,100  Level Kansas City Center
09:05AM 40.1453 -92.9778 183° South 154 177 8,100  Level Kansas City Center
09:06AM 40.1042 -92.9825 185° South 151 174 8,100  Level Kansas City Center
09:07AM 40.0617 -92.9872 185° South 153 176 8,100  Level Kansas City Center
09:08AM 40.0114 -92.9928 185° South 153 176 8,100  Level Kansas City Center
09:09AM 39.9700 -92.9969 184° South 152 175 8,100  Level Kansas City Center
09:10AM 39.9283 -93.0003 184° South 151 174 8,100  Level Kansas City Center
09:11AM 39.8867 -93.0031 183° South 151 174 8,100  Level Kansas City Center
09:12AM 39.8453 -93.0069 184° South 151 174 8,100  Level Kansas City Center
09:13AM 39.7942 -93.0106 183° South 152 175 8,100  Level Kansas City Center
09:14AM 39.7525 -93.0147 184° South 152 175 8,100  Level Kansas City Center
09:15AM 39.7106 -93.0214 187° South 153 176 8,100  Level Kansas City Center
09:16AM 39.6678 -93.0258 185° South 154 177 8,100  Level Kansas City Center
09:17AM 39.6256 -93.0297 184° South 154 177 8,100  Level Kansas City Center
09:18AM 39.5750 -93.0325 182° South 153 176 8,100  Level Kansas City Center
09:19AM 39.5317 -93.0353 183° South 154 177 8,100  Level Kansas City Center
09:20AM 39.4889 -93.0372 182° South 155 178 8,100  Level Kansas City Center
09:21AM 39.4453 -93.0431 186° South 157 181 8,100  Level Kansas City Center
09:22AM 39.4042 -93.0486 186° South 154 177 8,100  Level Kansas City Center
09:23AM 39.3606 -93.0531 185° South 156 180 8,100  Level Kansas City Center
09:24AM 39.3106 -93.0572 184° South 153 176 8,200  Climbing Kansas City Center
09:25AM 39.2669 -93.0611 184° South 156 180 8,100 -60 Descending Kansas City Center
09:26AM 39.2236 -93.0644 183° South 157 181 8,100  Level Kansas City Center
09:27AM 39.1808 -93.0686 184° South 156 180 8,100  Level Kansas City Center
09:28AM 39.1381 -93.0733 185° South 155 178 8,100  Level Kansas City Center
09:29AM 39.0861 -93.0764 183° South 156 180 8,100  Level Kansas City Center
09:30AM 39.0417 -93.0825 186° South 160 184 8,100  Level Kansas City Center
09:31AM 38.9936 -93.0861 183° South 157 181 8,100  Level Kansas City Center
09:32AM 38.9483 -93.0900 184° South 161 185 8,100  Level Kansas City Center
09:33AM 38.9036 -93.0936 184° South 161 185 8,100  Level Kansas City Center
09:34AM 38.8597 -93.0956 182° South 159 183 8,100  Level Kansas City Center
09:35AM 38.8147 -93.1000 184° South 160 184 8,100  Level Kansas City Center
09:37AM 38.7703 -93.1053 185° South 160 184 8,100  Level Kansas City Center
09:38AM 38.7247 -93.1094 184° South 162 186 8,100  Level Kansas City Center
09:39AM 38.6711 -93.1147 184° South 162 186 8,100  Level Kansas City Center
09:40AM 38.6261 -93.1203 186° South 161 185 8,100  Level Kansas City Center
09:41AM 38.5803 -93.1239 184° South 163 188 8,100  Level Kansas City Center
09:42AM 38.5353 -93.1278 184° South 162 186 8,100  Level Kansas City Center
09:43AM 38.4914 -93.1306 183° South 160 184 8,100  Level Kansas City Center
09:44AM 38.4456 -93.1350 184° South 162 186 8,100  Level Kansas City Center
09:45AM 38.3911 -93.1406 185° South 163 188 8,100  Level Kansas City Center
09:46AM 38.3450 -93.1444 184° South 164 189 8,100  Level Kansas City Center
09:47AM 38.3003 -93.1492 185° South 163 188 8,100  Level Kansas City Center
09:48AM 38.2550 -93.1533 184° South 163 188 8,100  Level Kansas City Center
09:49AM 38.2092 -93.1567 183° South 164 189 8,100  Level Kansas City Center
09:50AM 38.1644 -93.1603 184° South 162 186 8,100  Level Kansas City Center
09:51AM 38.1194 -93.1647 184° South 162 186 8,100  Level Kansas City Center
09:52AM 38.0656 -93.1697 184° South 162 186 8,100  Level Kansas City Center
09:53AM 38.0217 -93.1736 184° South 159 183 8,100  Level Kansas City Center
09:54AM 37.9756 -93.1786 185° South 163 188 8,100  Level Kansas City Center
09:55AM 37.9308 -93.1822 184° South 163 188 8,100 -240 Level Kansas City Center
09:56AM 37.8850 -93.1853 183° South 163 188 7,700 -540 Descending Kansas City Center
09:57AM 37.8344 -93.1892 183° South 169 194 7,100 -660 Descending Kansas City Center
09:58AM 37.7714 -93.1944 184° South 179 206 6,400 -660 Descending Kansas City Center
09:59AM 37.7183 -93.1975 183° South 186 214 5,800 -660 Descending Kansas City Center
10:00AM 37.6656 -93.2022 184° South 188 216 5,100 -780 Descending Kansas City Center
10:01AM 37.6133 -93.2067 184° South 189 217 4,300 -720 Descending Kansas City Center
10:02AM 37.5597 -93.2111 184° South 190 219 3,700 -540 Descending Kansas City Center
10:03AM 37.5097 -93.2150 184° South 187 215 3,200 -360 Descending Kansas City Center
10:04AM 37.4533 -93.2197 184° South 178 205 3,000 -120 Descending Kansas City Center
10:05AM 37.4153 -93.2225 183° South 160 184 3,000  Level Kansas City Center
10:06AM 37.3803 -93.2283 188° South 144 166 3,000  Level Kansas City Center
10:07AM 37.3489 -93.2317 185° South 138 159 3,000  Level Kansas City Center